sensor_id;sensor_type;location;lat;lon;timestamp;pressure;altitude;pressure_sealevel;temperature;humidity
51926;BME280;37952;51.938;15.480;2022-11-23T00:02:55;98635.00;;;2.26;79.94
51926;BME280;37952;51.938;15.480;2022-11-23T00:06:02;98640.42;;;2.26;79.87
51926;BME280;37952;51.938;15.480;2022-11-23T00:09:06;98645.17;;;2.24;79.96
51926;BME280;37952;51.938;15.480;2022-11-23T00:12:09;98644.95;;;2.22;79.91
51926;BME280;37952;51.938;15.480;2022-11-23T00:15:13;98647.50;;;2.23;79.96
51926;BME280;37952;51.938;15.480;2022-11-23T00:18:16;98648.03;;;2.27;79.91
51926;BME280;37952;51.938;15.480;2022-11-23T00:21:19;98645.91;;;2.27;79.86
51926;BME280;37952;51.938;15.480;2022-11-23T00:24:23;98646.20;;;2.25;79.80
51926;BME280;37952;51.938;15.480;2022-11-23T00:27:26;98637.90;;;2.24;79.89
51926;BME280;37952;51.938;15.480;2022-11-23T00:30:29;98636.50;;;2.24;79.87
51926;BME280;37952;51.938;15.480;2022-11-23T00:33:32;98632.05;;;2.23;79.67
51926;BME280;37952;51.938;15.480;2022-11-23T00:36:35;98634.11;;;2.23;79.74
51926;BME280;37952;51.938;15.480;2022-11-23T00:39:38;98640.66;;;2.20;79.66
51926;BME280;37952;51.938;15.480;2022-11-23T00:42:41;98645.46;;;2.18;79.77
51926;BME280;37952;51.938;15.480;2022-11-23T00:45:47;98640.92;;;2.18;79.78
51926;BME280;37952;51.938;15.480;2022-11-23T00:48:56;98642.16;;;2.18;79.95
51926;BME280;37952;51.938;15.480;2022-11-23T00:51:59;98635.42;;;2.17;79.73
51926;BME280;37952;51.938;15.480;2022-11-23T00:55:03;98631.59;;;2.17;79.76
51926;BME280;37952;51.938;15.480;2022-11-23T00:58:06;98638.23;;;2.17;79.81
51926;BME280;37952;51.938;15.480;2022-11-23T01:01:11;98636.30;;;2.13;79.87
51926;BME280;37952;51.938;15.480;2022-11-23T01:04:14;98639.68;;;2.11;79.91
51926;BME280;37952;51.938;15.480;2022-11-23T01:07:17;98640.23;;;2.07;79.97
51926;BME280;37952;51.938;15.480;2022-11-23T01:10:20;98643.53;;;1.98;79.83
51926;BME280;37952;51.938;15.480;2022-11-23T01:13:24;98645.85;;;1.97;80.00
51926;BME280;37952;51.938;15.480;2022-11-23T01:16:29;98647.91;;;1.97;80.05
51926;BME280;37952;51.938;15.480;2022-11-23T01:19:33;98643.52;;;1.99;79.97
51926;BME280;37952;51.938;15.480;2022-11-23T01:22:36;98642.30;;;1.98;79.95
51926;BME280;37952;51.938;15.480;2022-11-23T01:25:39;98639.25;;;1.97;79.80
51926;BME280;37952;51.938;15.480;2022-11-23T01:28:43;98640.09;;;2.01;79.98
51926;BME280;37952;51.938;15.480;2022-11-23T01:31:47;98636.06;;;2.03;80.00
51926;BME280;37952;51.938;15.480;2022-11-23T01:34:50;98646.29;;;2.07;79.89
51926;BME280;37952;51.938;15.480;2022-11-23T01:37:58;98644.70;;;2.07;79.76
51926;BME280;37952;51.938;15.480;2022-11-23T01:41:06;98649.16;;;2.09;79.99
51926;BME280;37952;51.938;15.480;2022-11-23T01:44:24;98650.48;;;2.11;79.76
51926;BME280;37952;51.938;15.480;2022-11-23T01:47:27;98650.71;;;2.09;79.93
51926;BME280;37952;51.938;15.480;2022-11-23T01:50:31;98653.23;;;2.11;79.97
51926;BME280;37952;51.938;15.480;2022-11-23T01:53:37;98653.36;;;2.12;79.81
51926;BME280;37952;51.938;15.480;2022-11-23T01:56:54;98658.10;;;2.16;79.74
51926;BME280;37952;51.938;15.480;2022-11-23T01:59:59;98657.02;;;2.16;79.87
51926;BME280;37952;51.938;15.480;2022-11-23T02:03:03;98650.08;;;2.20;79.66
51926;BME280;37952;51.938;15.480;2022-11-23T02:06:16;98644.52;;;2.20;79.84
51926;BME280;37952;51.938;15.480;2022-11-23T02:09:25;98643.98;;;2.20;79.74
51926;BME280;37952;51.938;15.480;2022-11-23T02:12:28;98645.02;;;2.24;79.81
51926;BME280;37952;51.938;15.480;2022-11-23T02:15:31;98643.98;;;2.32;79.76
51926;BME280;37952;51.938;15.480;2022-11-23T02:18:34;98642.14;;;2.39;79.68
51926;BME280;37952;51.938;15.480;2022-11-23T02:21:51;98644.65;;;2.40;79.58
51926;BME280;37952;51.938;15.480;2022-11-23T02:24:54;98647.42;;;2.41;79.64
51926;BME280;37952;51.938;15.480;2022-11-23T02:27:58;98645.93;;;2.43;79.59
51926;BME280;37952;51.938;15.480;2022-11-23T02:31:01;98638.77;;;2.43;79.42
51926;BME280;37952;51.938;15.480;2022-11-23T02:34:04;98641.77;;;2.42;79.38
51926;BME280;37952;51.938;15.480;2022-11-23T02:37:08;98639.14;;;2.39;79.29
51926;BME280;37952;51.938;15.480;2022-11-23T02:40:31;98641.34;;;2.37;79.30
51926;BME280;37952;51.938;15.480;2022-11-23T02:43:38;98641.89;;;2.36;79.42
51926;BME280;37952;51.938;15.480;2022-11-23T02:46:48;98646.34;;;2.38;79.35
51926;BME280;37952;51.938;15.480;2022-11-23T02:49:52;98649.85;;;2.37;79.32
51926;BME280;37952;51.938;15.480;2022-11-23T02:52:55;98653.08;;;2.35;79.45
51926;BME280;37952;51.938;15.480;2022-11-23T02:55:57;98660.73;;;2.35;79.41
51926;BME280;37952;51.938;15.480;2022-11-23T02:59:00;98656.75;;;2.30;79.31
51926;BME280;37952;51.938;15.480;2022-11-23T03:02:04;98651.65;;;2.28;79.31
51926;BME280;37952;51.938;15.480;2022-11-23T03:05:08;98656.42;;;2.22;79.38
51926;BME280;37952;51.938;15.480;2022-11-23T03:08:11;98657.98;;;2.18;79.43
51926;BME280;37952;51.938;15.480;2022-11-23T03:11:14;98653.50;;;2.13;79.45
51926;BME280;37952;51.938;15.480;2022-11-23T03:14:18;98658.08;;;2.07;79.55
51926;BME280;37952;51.938;15.480;2022-11-23T03:17:21;98658.77;;;2.03;79.57
51926;BME280;37952;51.938;15.480;2022-11-23T03:20:24;98662.16;;;1.97;79.57
51926;BME280;37952;51.938;15.480;2022-11-23T03:23:27;98667.54;;;1.94;79.57
51926;BME280;37952;51.938;15.480;2022-11-23T03:26:30;98672.52;;;1.94;79.53
51926;BME280;37952;51.938;15.480;2022-11-23T03:29:34;98669.38;;;1.96;79.64
51926;BME280;37952;51.938;15.480;2022-11-23T03:32:36;98669.39;;;1.91;79.66
51926;BME280;37952;51.938;15.480;2022-11-23T03:35:39;98674.40;;;1.83;79.76
51926;BME280;37952;51.938;15.480;2022-11-23T03:38:42;98677.42;;;1.82;79.72
51926;BME280;37952;51.938;15.480;2022-11-23T03:41:45;98679.27;;;1.79;79.73
51926;BME280;37952;51.938;15.480;2022-11-23T03:44:48;98679.94;;;1.76;79.76
51926;BME280;37952;51.938;15.480;2022-11-23T03:47:52;98680.90;;;1.77;79.76
51926;BME280;37952;51.938;15.480;2022-11-23T03:50:55;98672.97;;;1.76;79.82
51926;BME280;37952;51.938;15.480;2022-11-23T03:53:58;98672.23;;;1.73;79.89
51926;BME280;37952;51.938;15.480;2022-11-23T03:57:01;98678.70;;;1.72;79.81
51926;BME280;37952;51.938;15.480;2022-11-23T04:00:04;98680.36;;;1.74;79.91
51926;BME280;37952;51.938;15.480;2022-11-23T04:03:07;98680.01;;;1.74;79.77
51926;BME280;37952;51.938;15.480;2022-11-23T04:06:12;98683.90;;;1.72;79.85
51926;BME280;37952;51.938;15.480;2022-11-23T04:09:16;98682.45;;;1.70;80.02
51926;BME280;37952;51.938;15.480;2022-11-23T04:12:22;98687.17;;;1.69;79.90
51926;BME280;37952;51.938;15.480;2022-11-23T04:15:27;98690.34;;;1.63;79.84
51926;BME280;37952;51.938;15.480;2022-11-23T04:18:30;98694.82;;;1.60;79.98
51926;BME280;37952;51.938;15.480;2022-11-23T04:21:33;98695.74;;;1.63;79.80
51926;BME280;37952;51.938;15.480;2022-11-23T04:24:36;98698.55;;;1.62;79.83
51926;BME280;37952;51.938;15.480;2022-11-23T04:27:39;98699.48;;;1.61;79.81
51926;BME280;37952;51.938;15.480;2022-11-23T04:30:42;98708.08;;;1.58;79.93
51926;BME280;37952;51.938;15.480;2022-11-23T04:33:45;98714.89;;;1.57;79.88
51926;BME280;37952;51.938;15.480;2022-11-23T04:36:48;98715.73;;;1.58;79.91
51926;BME280;37952;51.938;15.480;2022-11-23T04:39:51;98715.73;;;1.58;79.82
51926;BME280;37952;51.938;15.480;2022-11-23T04:42:54;98718.17;;;1.58;79.73
51926;BME280;37952;51.938;15.480;2022-11-23T04:46:03;98713.59;;;1.55;79.67
51926;BME280;37952;51.938;15.480;2022-11-23T04:49:08;98710.91;;;1.53;79.99
51926;BME280;37952;51.938;15.480;2022-11-23T04:52:11;98711.04;;;1.50;79.97
51926;BME280;37952;51.938;15.480;2022-11-23T04:55:14;98710.77;;;1.48;79.97
51926;BME280;37952;51.938;15.480;2022-11-23T04:58:16;98712.23;;;1.45;80.03
51926;BME280;37952;51.938;15.480;2022-11-23T05:01:19;98710.92;;;1.40;79.88
51926;BME280;37952;51.938;15.480;2022-11-23T05:04:25;98712.55;;;1.38;80.07
51926;BME280;37952;51.938;15.480;2022-11-23T05:07:28;98710.47;;;1.38;80.11
51926;BME280;37952;51.938;15.480;2022-11-23T05:10:31;98710.59;;;1.39;80.07
51926;BME280;37952;51.938;15.480;2022-11-23T05:13:35;98706.98;;;1.38;80.10
51926;BME280;37952;51.938;15.480;2022-11-23T05:16:38;98705.11;;;1.33;80.06
51926;BME280;37952;51.938;15.480;2022-11-23T05:19:41;98703.46;;;1.30;80.22
51926;BME280;37952;51.938;15.480;2022-11-23T05:22:44;98704.73;;;1.29;80.17
51926;BME280;37952;51.938;15.480;2022-11-23T05:25:47;98696.28;;;1.28;80.15
51926;BME280;37952;51.938;15.480;2022-11-23T05:28:52;98694.52;;;1.28;80.29
51926;BME280;37952;51.938;15.480;2022-11-23T05:31:55;98693.66;;;1.28;80.17
51926;BME280;37952;51.938;15.480;2022-11-23T05:34:59;98691.98;;;1.26;80.19
51926;BME280;37952;51.938;15.480;2022-11-23T05:38:04;98695.31;;;1.26;80.24
51926;BME280;37952;51.938;15.480;2022-11-23T05:41:07;98695.86;;;1.29;80.20
51926;BME280;37952;51.938;15.480;2022-11-23T05:44:10;98694.67;;;1.33;80.40
51926;BME280;37952;51.938;15.480;2022-11-23T05:47:16;98693.45;;;1.33;80.26
51926;BME280;37952;51.938;15.480;2022-11-23T05:50:20;98693.67;;;1.36;80.33
51926;BME280;37952;51.938;15.480;2022-11-23T05:53:24;98694.32;;;1.42;80.30
51926;BME280;37952;51.938;15.480;2022-11-23T05:56:27;98694.94;;;1.44;80.26
51926;BME280;37952;51.938;15.480;2022-11-23T05:59:29;98691.05;;;1.45;80.32
51926;BME280;37952;51.938;15.480;2022-11-23T06:02:33;98687.02;;;1.47;80.06
51926;BME280;37952;51.938;15.480;2022-11-23T06:05:42;98682.20;;;1.50;80.13
51926;BME280;37952;51.938;15.480;2022-11-23T06:09:15;98684.67;;;1.57;80.23
51926;BME280;37952;51.938;15.480;2022-11-23T06:12:18;98690.23;;;1.62;80.03
51926;BME280;37952;51.938;15.480;2022-11-23T06:15:21;98691.13;;;1.61;80.23
51926;BME280;37952;51.938;15.480;2022-11-23T06:18:24;98690.98;;;1.61;80.01
51926;BME280;37952;51.938;15.480;2022-11-23T06:21:27;98692.12;;;1.62;80.03
51926;BME280;37952;51.938;15.480;2022-11-23T06:24:30;98697.62;;;1.64;80.09
51926;BME280;37952;51.938;15.480;2022-11-23T06:27:32;98699.92;;;1.63;79.86
51926;BME280;37952;51.938;15.480;2022-11-23T06:30:35;98701.32;;;1.58;79.93
51926;BME280;37952;51.938;15.480;2022-11-23T06:33:38;98710.00;;;1.54;79.93
51926;BME280;37952;51.938;15.480;2022-11-23T06:36:41;98712.33;;;1.52;80.08
51926;BME280;37952;51.938;15.480;2022-11-23T06:39:44;98709.89;;;1.52;79.96
51926;BME280;37952;51.938;15.480;2022-11-23T06:42:47;98711.09;;;1.52;80.01
51926;BME280;37952;51.938;15.480;2022-11-23T06:45:50;98713.16;;;1.53;79.94
51926;BME280;37952;51.938;15.480;2022-11-23T06:48:53;98713.80;;;1.54;79.92
51926;BME280;37952;51.938;15.480;2022-11-23T06:51:56;98716.27;;;1.57;80.05
51926;BME280;37952;51.938;15.480;2022-11-23T06:54:59;98719.22;;;1.62;80.00
51926;BME280;37952;51.938;15.480;2022-11-23T06:58:02;98713.38;;;1.61;79.83
51926;BME280;37952;51.938;15.480;2022-11-23T07:01:07;98723.80;;;1.65;79.77
51926;BME280;37952;51.938;15.480;2022-11-23T07:04:11;98728.70;;;1.68;79.85
51926;BME280;37952;51.938;15.480;2022-11-23T07:07:14;98729.52;;;1.74;79.85
51926;BME280;37952;51.938;15.480;2022-11-23T07:10:17;98734.77;;;1.78;79.57
51926;BME280;37952;51.938;15.480;2022-11-23T07:13:20;98739.08;;;1.82;79.64
51926;BME280;37952;51.938;15.480;2022-11-23T07:16:23;98749.13;;;1.87;79.67
51926;BME280;37952;51.938;15.480;2022-11-23T07:19:26;98755.70;;;1.92;79.54
51926;BME280;37952;51.938;15.480;2022-11-23T07:22:28;98755.57;;;1.95;79.48
51926;BME280;37952;51.938;15.480;2022-11-23T07:25:33;98753.74;;;1.98;79.47
51926;BME280;37952;51.938;15.480;2022-11-23T07:28:38;98755.20;;;2.01;79.57
51926;BME280;37952;51.938;15.480;2022-11-23T07:31:41;98761.30;;;2.04;79.56
51926;BME280;37952;51.938;15.480;2022-11-23T07:34:44;98767.63;;;2.07;79.52
51926;BME280;37952;51.938;15.480;2022-11-23T07:37:47;98764.79;;;2.08;79.39
51926;BME280;37952;51.938;15.480;2022-11-23T07:40:50;98769.95;;;2.09;79.38
51926;BME280;37952;51.938;15.480;2022-11-23T07:43:53;98768.39;;;2.13;79.39
51926;BME280;37952;51.938;15.480;2022-11-23T07:47:07;98760.20;;;2.18;79.44
51926;BME280;37952;51.938;15.480;2022-11-23T07:50:11;98758.02;;;2.20;79.49
51926;BME280;37952;51.938;15.480;2022-11-23T07:53:14;98758.65;;;2.26;79.27
51926;BME280;37952;51.938;15.480;2022-11-23T07:56:17;98758.54;;;2.28;79.21
51926;BME280;37952;51.938;15.480;2022-11-23T07:59:20;98759.23;;;2.33;79.09
51926;BME280;37952;51.938;15.480;2022-11-23T08:02:23;98759.02;;;2.38;79.04
51926;BME280;37952;51.938;15.480;2022-11-23T08:05:26;98761.39;;;2.43;79.14
51926;BME280;37952;51.938;15.480;2022-11-23T08:08:29;98761.77;;;2.47;79.00
51926;BME280;37952;51.938;15.480;2022-11-23T08:11:32;98761.80;;;2.46;78.88
51926;BME280;37952;51.938;15.480;2022-11-23T08:14:35;98760.45;;;2.45;78.82
51926;BME280;37952;51.938;15.480;2022-11-23T08:17:38;98759.67;;;2.47;78.85
51926;BME280;37952;51.938;15.480;2022-11-23T08:20:44;98762.14;;;2.46;78.73
51926;BME280;37952;51.938;15.480;2022-11-23T08:24:10;98761.85;;;2.45;78.60
51926;BME280;37952;51.938;15.480;2022-11-23T08:27:14;98768.26;;;2.45;78.62
51926;BME280;37952;51.938;15.480;2022-11-23T08:30:18;98771.23;;;2.49;78.78
51926;BME280;37952;51.938;15.480;2022-11-23T08:33:21;98773.54;;;2.56;78.75
51926;BME280;37952;51.938;15.480;2022-11-23T08:36:24;98777.23;;;2.59;78.55
51926;BME280;37952;51.938;15.480;2022-11-23T08:39:27;98772.73;;;2.59;78.48
51926;BME280;37952;51.938;15.480;2022-11-23T08:42:30;98771.81;;;2.56;78.61
51926;BME280;37952;51.938;15.480;2022-11-23T08:45:33;98775.42;;;2.57;78.42
51926;BME280;37952;51.938;15.480;2022-11-23T08:48:36;98780.58;;;2.59;78.54
51926;BME280;37952;51.938;15.480;2022-11-23T08:51:38;98782.02;;;2.57;78.50
51926;BME280;37952;51.938;15.480;2022-11-23T08:54:44;98783.90;;;2.54;78.37
51926;BME280;37952;51.938;15.480;2022-11-23T08:57:47;98783.55;;;2.50;78.35
51926;BME280;37952;51.938;15.480;2022-11-23T09:00:49;98786.67;;;2.46;78.36
51926;BME280;37952;51.938;15.480;2022-11-23T09:03:52;98788.98;;;2.44;78.49
51926;BME280;37952;51.938;15.480;2022-11-23T09:09:50;98787.25;;;2.49;78.45
51926;BME280;37952;51.938;15.480;2022-11-23T09:12:53;98785.75;;;2.51;78.69
51926;BME280;37952;51.938;15.480;2022-11-23T09:15:57;98787.09;;;2.61;78.65
51926;BME280;37952;51.938;15.480;2022-11-23T09:19:00;98789.86;;;2.69;78.59
51926;BME280;37952;51.938;15.480;2022-11-23T09:22:04;98793.38;;;2.80;78.52
51926;BME280;37952;51.938;15.480;2022-11-23T09:25:07;98794.45;;;2.91;78.51
51926;BME280;37952;51.938;15.480;2022-11-23T09:28:11;98794.78;;;3.00;78.43
51926;BME280;37952;51.938;15.480;2022-11-23T09:31:16;98793.54;;;3.08;78.51
51926;BME280;37952;51.938;15.480;2022-11-23T09:34:21;98791.64;;;3.19;78.47
51926;BME280;37952;51.938;15.480;2022-11-23T09:37:24;98780.84;;;3.30;78.41
51926;BME280;37952;51.938;15.480;2022-11-23T09:40:31;98777.25;;;3.40;78.27
51926;BME280;37952;51.938;15.480;2022-11-23T09:50:14;98771.69;;;3.55;77.99
51926;BME280;37952;51.938;15.480;2022-11-23T09:56:45;98772.82;;;3.53;77.79
51926;BME280;37952;51.938;15.480;2022-11-23T10:00:06;98772.69;;;3.52;77.71
51926;BME280;37952;51.938;15.480;2022-11-23T10:03:13;98767.09;;;3.53;77.72
51926;BME280;37952;51.938;15.480;2022-11-23T10:06:24;98762.60;;;3.60;77.69
51926;BME280;37952;51.938;15.480;2022-11-23T10:09:56;98759.38;;;3.68;77.82
51926;BME280;37952;51.938;15.480;2022-11-23T10:13:28;98757.71;;;3.77;77.74
51926;BME280;37952;51.938;15.480;2022-11-23T10:20:48;98759.70;;;3.91;77.69
51926;BME280;37952;51.938;15.480;2022-11-23T10:23:55;98753.32;;;4.00;77.58
51926;BME280;37952;51.938;15.480;2022-11-23T10:27:01;98751.14;;;4.09;77.47
51926;BME280;37952;51.938;15.480;2022-11-23T10:30:11;98751.71;;;4.15;77.44
51926;BME280;37952;51.938;15.480;2022-11-23T10:33:30;98753.30;;;4.18;77.35
51926;BME280;37952;51.938;15.480;2022-11-23T10:36:35;98754.36;;;4.21;77.19
51926;BME280;37952;51.938;15.480;2022-11-23T10:39:38;98750.89;;;4.25;77.18
51926;BME280;37952;51.938;15.480;2022-11-23T10:42:47;98749.62;;;4.28;77.05
51926;BME280;37952;51.938;15.480;2022-11-23T10:49:34;98747.44;;;4.41;76.99
51926;BME280;37952;51.938;15.480;2022-11-23T10:52:37;98743.95;;;4.47;77.04
51926;BME280;37952;51.938;15.480;2022-11-23T10:55:53;98741.88;;;4.54;76.99
51926;BME280;37952;51.938;15.480;2022-11-23T10:58:56;98744.27;;;4.62;76.85
51926;BME280;37952;51.938;15.480;2022-11-23T11:02:13;98743.86;;;4.66;76.68
51926;BME280;37952;51.938;15.480;2022-11-23T11:08:56;98738.64;;;4.73;76.69
51926;BME280;37952;51.938;15.480;2022-11-23T11:12:04;98739.17;;;4.79;76.70
51926;BME280;37952;51.938;15.480;2022-11-23T11:18:17;98734.80;;;4.92;76.61
51926;BME280;37952;51.938;15.480;2022-11-23T11:21:22;98733.38;;;4.99;76.56
51926;BME280;37952;51.938;15.480;2022-11-23T11:24:32;98727.52;;;5.08;76.55
51926;BME280;37952;51.938;15.480;2022-11-23T11:27:49;98722.83;;;5.17;76.55
51926;BME280;37952;51.938;15.480;2022-11-23T11:31:02;98721.57;;;5.27;76.40
51926;BME280;37952;51.938;15.480;2022-11-23T11:37:33;98722.33;;;5.32;76.09
51926;BME280;37952;51.938;15.480;2022-11-23T11:40:52;98720.88;;;5.36;76.00
51926;BME280;37952;51.938;15.480;2022-11-23T11:44:11;98721.22;;;5.43;75.96
51926;BME280;37952;51.938;15.480;2022-11-23T11:47:26;98727.10;;;5.47;75.72
51926;BME280;37952;51.938;15.480;2022-11-23T11:50:50;98724.23;;;5.45;75.96
51926;BME280;37952;51.938;15.480;2022-11-23T11:54:12;98730.66;;;5.36;75.68
51926;BME280;37952;51.938;15.480;2022-11-23T11:57:41;98732.36;;;5.24;75.61
51926;BME280;37952;51.938;15.480;2022-11-23T12:00:47;98730.95;;;5.16;75.62
51926;BME280;37952;51.938;15.480;2022-11-23T12:03:57;98719.09;;;5.02;75.58
51926;BME280;37952;51.938;15.480;2022-11-23T12:13:59;98719.85;;;4.94;75.72
51926;BME280;37952;51.938;15.480;2022-11-23T12:57:21;98739.77;;;5.33;75.59
51926;BME280;37952;51.938;15.480;2022-11-23T13:00:34;98740.09;;;5.37;75.65
51926;BME280;37952;51.938;15.480;2022-11-23T13:10:36;98747.15;;;5.55;75.30
51926;BME280;37952;51.938;15.480;2022-11-23T13:23:48;98757.89;;;5.47;74.68
51926;BME280;37952;51.938;15.480;2022-11-23T13:30:33;98763.77;;;5.41;74.72
51926;BME280;37952;51.938;15.480;2022-11-23T13:33:59;98762.78;;;5.40;74.84
51926;BME280;37952;51.938;15.480;2022-11-23T13:37:02;98763.31;;;5.40;74.85
51926;BME280;37952;51.938;15.480;2022-11-23T13:40:38;98748.46;;;5.34;74.96
51926;BME280;37952;51.938;15.480;2022-11-23T13:43:42;98758.97;;;5.40;74.83
51926;BME280;37952;51.938;15.480;2022-11-23T13:47:03;98762.60;;;5.34;74.90
51926;BME280;37952;51.938;15.480;2022-11-23T13:53:30;98762.14;;;5.36;75.16
51926;BME280;37952;51.938;15.480;2022-11-23T13:56:37;98765.27;;;5.36;74.93
51926;BME280;37952;51.938;15.480;2022-11-23T13:59:41;98760.55;;;5.30;74.94
51926;BME280;37952;51.938;15.480;2022-11-23T14:02:44;98759.81;;;5.24;74.91
51926;BME280;37952;51.938;15.480;2022-11-23T14:05:55;98756.59;;;5.22;75.18
51926;BME280;37952;51.938;15.480;2022-11-23T14:09:20;98757.63;;;5.20;75.03
51926;BME280;37952;51.938;15.480;2022-11-23T14:12:35;98762.16;;;5.16;75.11
51926;BME280;37952;51.938;15.480;2022-11-23T14:15:39;98763.41;;;5.09;75.14
51926;BME280;37952;51.938;15.480;2022-11-23T14:18:52;98762.52;;;5.06;75.36
51926;BME280;37952;51.938;15.480;2022-11-23T14:25:38;98761.59;;;5.01;75.36
51926;BME280;37952;51.938;15.480;2022-11-23T14:29:08;98765.89;;;4.96;75.48
51926;BME280;37952;51.938;15.480;2022-11-23T14:35:44;98775.08;;;4.80;75.60
51926;BME280;37952;51.938;15.480;2022-11-23T14:42:13;98777.52;;;4.73;75.77
51926;BME280;37952;51.938;15.480;2022-11-23T14:45:18;98781.11;;;4.65;75.98
51926;BME280;37952;51.938;15.480;2022-11-23T14:48:34;98787.39;;;4.54;75.99
51926;BME280;37952;51.938;15.480;2022-11-23T14:51:40;98783.05;;;4.50;76.04
51926;BME280;37952;51.938;15.480;2022-11-23T14:54:53;98782.27;;;4.45;76.28
51926;BME280;37952;51.938;15.480;2022-11-23T14:58:01;98779.29;;;4.42;76.21
51926;BME280;37952;51.938;15.480;2022-11-23T15:01:19;98780.73;;;4.38;76.31
51926;BME280;37952;51.938;15.480;2022-11-23T15:05:06;98780.38;;;4.31;76.33
51926;BME280;37952;51.938;15.480;2022-11-23T15:08:17;98779.36;;;4.23;76.72
51926;BME280;37952;51.938;15.480;2022-11-23T15:11:26;98775.73;;;4.20;76.86
51926;BME280;37952;51.938;15.480;2022-11-23T15:14:30;98781.55;;;4.18;76.83
51926;BME280;37952;51.938;15.480;2022-11-23T15:17:34;98783.95;;;4.12;76.90
51926;BME280;37952;51.938;15.480;2022-11-23T15:20:43;98785.95;;;4.07;77.00
51926;BME280;37952;51.938;15.480;2022-11-23T15:23:51;98789.10;;;4.03;77.05
51926;BME280;37952;51.938;15.480;2022-11-23T15:27:02;98791.86;;;4.03;77.04
51926;BME280;37952;51.938;15.480;2022-11-23T15:33:20;98791.64;;;3.97;77.44
51926;BME280;37952;51.938;15.480;2022-11-23T15:36:27;98788.80;;;3.91;77.35
51926;BME280;37952;51.938;15.480;2022-11-23T15:39:31;98790.74;;;3.90;77.41
51926;BME280;37952;51.938;15.480;2022-11-23T15:42:35;98789.92;;;3.89;77.38
51926;BME280;37952;51.938;15.480;2022-11-23T15:45:59;98791.33;;;3.93;77.36
51926;BME280;37952;51.938;15.480;2022-11-23T15:49:04;98794.32;;;3.96;77.35
51926;BME280;37952;51.938;15.480;2022-11-23T15:52:14;98795.87;;;3.93;77.34
51926;BME280;37952;51.938;15.480;2022-11-23T15:55:40;98800.85;;;3.91;77.25
51926;BME280;37952;51.938;15.480;2022-11-23T15:58:47;98801.19;;;3.94;77.21
51926;BME280;37952;51.938;15.480;2022-11-23T16:01:50;98800.39;;;3.96;77.41
51926;BME280;37952;51.938;15.480;2022-11-23T16:05:11;98802.04;;;3.99;77.25
51926;BME280;37952;51.938;15.480;2022-11-23T16:08:23;98802.58;;;3.94;77.33
51926;BME280;37952;51.938;15.480;2022-11-23T16:11:31;98798.25;;;3.94;77.29
51926;BME280;37952;51.938;15.480;2022-11-23T16:14:40;98800.95;;;3.96;77.39
51926;BME280;37952;51.938;15.480;2022-11-23T16:17:52;98801.65;;;3.96;77.28
51926;BME280;37952;51.938;15.480;2022-11-23T16:21:00;98806.95;;;3.90;77.58
51926;BME280;37952;51.938;15.480;2022-11-23T16:24:22;98806.80;;;3.86;77.57
51926;BME280;37952;51.938;15.480;2022-11-23T16:27:37;98805.27;;;3.86;77.60
51926;BME280;37952;51.938;15.480;2022-11-23T16:30:48;98805.59;;;3.82;77.68
51926;BME280;37952;51.938;15.480;2022-11-23T16:34:08;98803.31;;;3.79;77.62
51926;BME280;37952;51.938;15.480;2022-11-23T16:37:18;98807.20;;;3.75;77.69
51926;BME280;37952;51.938;15.480;2022-11-23T16:40:25;98804.73;;;3.71;77.79
51926;BME280;37952;51.938;15.480;2022-11-23T16:43:40;98805.15;;;3.70;77.75
51926;BME280;37952;51.938;15.480;2022-11-23T16:46:52;98809.73;;;3.72;77.87
51926;BME280;37952;51.938;15.480;2022-11-23T16:49:59;98812.49;;;3.66;77.98
51926;BME280;37952;51.938;15.480;2022-11-23T16:53:12;98807.13;;;3.65;77.94
51926;BME280;37952;51.938;15.480;2022-11-23T16:56:24;98808.52;;;3.61;78.09
51926;BME280;37952;51.938;15.480;2022-11-23T16:59:48;98798.37;;;3.55;78.05
51926;BME280;37952;51.938;15.480;2022-11-23T17:03:27;98804.92;;;3.56;78.36
51926;BME280;37952;51.938;15.480;2022-11-23T17:06:35;98807.18;;;3.56;78.41
51926;BME280;37952;51.938;15.480;2022-11-23T17:10:22;98807.82;;;3.53;78.30
51926;BME280;37952;51.938;15.480;2022-11-23T17:13:37;98807.45;;;3.54;78.44
51926;BME280;37952;51.938;15.480;2022-11-23T17:17:19;98809.42;;;3.56;78.45
51926;BME280;37952;51.938;15.480;2022-11-23T17:20:54;98805.73;;;3.58;78.38
51926;BME280;37952;51.938;15.480;2022-11-23T17:24:14;98810.66;;;3.60;78.39
51926;BME280;37952;51.938;15.480;2022-11-23T17:27:33;98807.56;;;3.59;78.40
51926;BME280;37952;51.938;15.480;2022-11-23T17:31:10;98806.27;;;3.64;78.49
51926;BME280;37952;51.938;15.480;2022-11-23T17:34:25;98806.39;;;3.62;78.50
51926;BME280;37952;51.938;15.480;2022-11-23T17:37:38;98800.16;;;3.54;78.50
51926;BME280;37952;51.938;15.480;2022-11-23T17:40:49;98812.48;;;3.58;78.56
51926;BME280;37952;51.938;15.480;2022-11-23T17:43:56;98816.19;;;3.61;78.55
51926;BME280;37952;51.938;15.480;2022-11-23T17:47:28;98824.73;;;3.61;78.51
51926;BME280;37952;51.938;15.480;2022-11-23T17:50:35;98824.40;;;3.61;78.43
51926;BME280;37952;51.938;15.480;2022-11-23T17:53:44;98824.02;;;3.58;78.36
51926;BME280;37952;51.938;15.480;2022-11-23T17:57:00;98825.73;;;3.59;78.40
51926;BME280;37952;51.938;15.480;2022-11-23T18:00:24;98819.78;;;3.59;78.41
51926;BME280;37952;51.938;15.480;2022-11-23T18:03:39;98818.50;;;3.57;78.52
51926;BME280;37952;51.938;15.480;2022-11-23T18:10:36;98825.04;;;3.51;78.46
51926;BME280;37952;51.938;15.480;2022-11-23T18:13:56;98835.75;;;3.56;78.37
51926;BME280;37952;51.938;15.480;2022-11-23T18:17:28;98836.74;;;3.54;78.53
51926;BME280;37952;51.938;15.480;2022-11-23T18:20:32;98833.82;;;3.52;78.46
51926;BME280;37952;51.938;15.480;2022-11-23T18:24:18;98836.60;;;3.45;78.50
51926;BME280;37952;51.938;15.480;2022-11-23T18:27:32;98832.36;;;3.39;78.56
51926;BME280;37952;51.938;15.480;2022-11-23T18:30:50;98834.28;;;3.43;78.66
51926;BME280;37952;51.938;15.480;2022-11-23T18:34:04;98834.26;;;3.43;78.50
51926;BME280;37952;51.938;15.480;2022-11-23T18:37:12;98838.42;;;3.44;78.53